sensor_id;sensor_type;location;lat;lon;timestamp;P1;durP1;ratioP1;P2;durP2;ratioP2
81219;SDS011;70690;52.494;13.410;2023-07-24T00:02:10;8.88;;;3.60;;
81219;SDS011;70690;52.494;13.410;2023-07-24T00:04:37;10.07;;;3.33;;
81219;SDS011;70690;52.494;13.410;2023-07-24T00:07:03;5.85;;;3.88;;
81219;SDS011;70690;52.494;13.410;2023-07-24T00:09:29;5.00;;;3.42;;
81219;SDS011;70690;52.494;13.410;2023-07-24T00:11:54;4.15;;;3.22;;
81219;SDS011;70690;52.494;13.410;2023-07-24T00:14:20;5.90;;;3.20;;
81219;SDS011;70690;52.494;13.410;2023-07-24T00:16:46;8.55;;;3.50;;
81219;SDS011;70690;52.494;13.410;2023-07-24T00:19:12;4.07;;;3.30;;
81219;SDS011;70690;52.494;13.410;2023-07-24T00:21:37;3.90;;;3.50;;
81219;SDS011;70690;52.494;13.410;2023-07-24T00:24:03;5.05;;;3.30;;
81219;SDS011;70690;52.494;13.410;2023-07-24T00:26:29;5.63;;;3.80;;
81219;SDS011;70690;52.494;13.410;2023-07-24T00:28:55;5.15;;;3.28;;
81219;SDS011;70690;52.494;13.410;2023-07-24T00:31:20;4.57;;;3.00;;
81219;SDS011;70690;52.494;13.410;2023-07-24T00:33:46;3.88;;;3.40;;
81219;SDS011;70690;52.494;13.410;2023-07-24T00:36:12;7.45;;;3.40;;
81219;SDS011;70690;52.494;13.410;2023-07-24T00:38:38;5.00;;;3.10;;
81219;SDS011;70690;52.494;13.410;2023-07-24T00:41:04;8.45;;;3.78;;
81219;SDS011;70690;52.494;13.410;2023-07-24T00:43:30;6.88;;;3.50;;
81219;SDS011;70690;52.494;13.410;2023-07-24T00:45:56;7.95;;;3.20;;
81219;SDS011;70690;52.494;13.410;2023-07-24T00:48:22;7.15;;;3.58;;
81219;SDS011;70690;52.494;13.410;2023-07-24T00:50:48;4.32;;;3.30;;
81219;SDS011;70690;52.494;13.410;2023-07-24T00:53:15;5.05;;;3.35;;
81219;SDS011;70690;52.494;13.410;2023-07-24T00:55:43;5.65;;;3.88;;
81219;SDS011;70690;52.494;13.410;2023-07-24T00:58:10;3.78;;;3.05;;
81219;SDS011;70690;52.494;13.410;2023-07-24T01:00:40;5.20;;;3.55;;
81219;SDS011;70690;52.494;13.410;2023-07-24T01:03:06;4.45;;;3.35;;
81219;SDS011;70690;52.494;13.410;2023-07-24T01:05:32;4.53;;;3.70;;
81219;SDS011;70690;52.494;13.410;2023-07-24T01:07:57;4.25;;;3.40;;
81219;SDS011;70690;52.494;13.410;2023-07-24T01:10:25;6.63;;;3.42;;
81219;SDS011;70690;52.494;13.410;2023-07-24T01:17:54;10.45;;;3.45;;
81219;SDS011;70690;52.494;13.410;2023-07-24T01:20:23;7.60;;;3.60;;
81219;SDS011;70690;52.494;13.410;2023-07-24T01:25:33;9.32;;;3.50;;
81219;SDS011;70690;52.494;13.410;2023-07-24T01:28:08;5.10;;;3.63;;
81219;SDS011;70690;52.494;13.410;2023-07-24T01:30:34;7.72;;;3.70;;
81219;SDS011;70690;52.494;13.410;2023-07-24T01:33:00;4.53;;;3.03;;
81219;SDS011;70690;52.494;13.410;2023-07-24T01:35:26;6.97;;;3.13;;
81219;SDS011;70690;52.494;13.410;2023-07-24T01:37:54;4.05;;;3.10;;
81219;SDS011;70690;52.494;13.410;2023-07-24T01:40:24;4.43;;;3.28;;
81219;SDS011;70690;52.494;13.410;2023-07-24T01:42:50;4.50;;;3.05;;
81219;SDS011;70690;52.494;13.410;2023-07-24T01:45:17;4.22;;;3.08;;
81219;SDS011;70690;52.494;13.410;2023-07-24T01:47:42;4.32;;;3.38;;
81219;SDS011;70690;52.494;13.410;2023-07-24T01:50:08;4.45;;;2.97;;
81219;SDS011;70690;52.494;13.410;2023-07-24T01:52:34;5.50;;;3.42;;
81219;SDS011;70690;52.494;13.410;2023-07-24T01:55:00;6.50;;;3.38;;
81219;SDS011;70690;52.494;13.410;2023-07-24T01:57:25;5.78;;;3.10;;
81219;SDS011;70690;52.494;13.410;2023-07-24T01:59:51;3.92;;;3.03;;
81219;SDS011;70690;52.494;13.410;2023-07-24T02:02:17;5.70;;;3.42;;
81219;SDS011;70690;52.494;13.410;2023-07-24T02:04:43;5.95;;;3.25;;
81219;SDS011;70690;52.494;13.410;2023-07-24T02:07:08;4.13;;;3.22;;
81219;SDS011;70690;52.494;13.410;2023-07-24T02:09:34;5.63;;;3.83;;
81219;SDS011;70690;52.494;13.410;2023-07-24T02:12:00;4.68;;;3.33;;
81219;SDS011;70690;52.494;13.410;2023-07-24T02:14:27;6.07;;;3.90;;
81219;SDS011;70690;52.494;13.410;2023-07-24T02:16:53;4.63;;;3.70;;
81219;SDS011;70690;52.494;13.410;2023-07-24T02:19:18;4.88;;;3.50;;
81219;SDS011;70690;52.494;13.410;2023-07-24T02:21:44;4.88;;;3.30;;
81219;SDS011;70690;52.494;13.410;2023-07-24T02:24:10;5.47;;;3.40;;
81219;SDS011;70690;52.494;13.410;2023-07-24T02:26:35;5.60;;;3.70;;
81219;SDS011;70690;52.494;13.410;2023-07-24T02:29:01;6.22;;;3.25;;
81219;SDS011;70690;52.494;13.410;2023-07-24T02:31:27;5.57;;;3.38;;
81219;SDS011;70690;52.494;13.410;2023-07-24T02:33:53;7.38;;;3.42;;
81219;SDS011;70690;52.494;13.410;2023-07-24T02:36:18;3.90;;;3.22;;
81219;SDS011;70690;52.494;13.410;2023-07-24T02:38:44;6.05;;;3.38;;
81219;SDS011;70690;52.494;13.410;2023-07-24T02:41:10;3.67;;;3.05;;
81219;SDS011;70690;52.494;13.410;2023-07-24T02:43:36;5.47;;;3.10;;
81219;SDS011;70690;52.494;13.410;2023-07-24T02:46:02;6.20;;;3.53;;
81219;SDS011;70690;52.494;13.410;2023-07-24T02:48:28;4.90;;;3.15;;
81219;SDS011;70690;52.494;13.410;2023-07-24T02:50:53;3.50;;;2.95;;
81219;SDS011;70690;52.494;13.410;2023-07-24T02:53:19;3.90;;;3.10;;
81219;SDS011;70690;52.494;13.410;2023-07-24T02:55:45;5.90;;;3.00;;
81219;SDS011;70690;52.494;13.410;2023-07-24T02:58:12;3.47;;;2.90;;
81219;SDS011;70690;52.494;13.410;2023-07-24T03:00:38;4.18;;;2.83;;
81219;SDS011;70690;52.494;13.410;2023-07-24T03:03:04;3.78;;;2.90;;
81219;SDS011;70690;52.494;13.410;2023-07-24T03:05:30;4.38;;;2.55;;
81219;SDS011;70690;52.494;13.410;2023-07-24T03:07:55;5.10;;;2.78;;
81219;SDS011;70690;52.494;13.410;2023-07-24T03:10:22;3.22;;;2.53;;
81219;SDS011;70690;52.494;13.410;2023-07-24T03:12:48;3.05;;;2.70;;
81219;SDS011;70690;52.494;13.410;2023-07-24T03:15:14;4.18;;;2.72;;
81219;SDS011;70690;52.494;13.410;2023-07-24T03:17:40;3.08;;;2.72;;
81219;SDS011;70690;52.494;13.410;2023-07-24T03:20:13;2.92;;;2.35;;
81219;SDS011;70690;52.494;13.410;2023-07-24T03:22:41;4.03;;;2.70;;
81219;SDS011;70690;52.494;13.410;2023-07-24T03:25:07;3.97;;;2.58;;
81219;SDS011;70690;52.494;13.410;2023-07-24T03:27:33;4.43;;;2.55;;
81219;SDS011;70690;52.494;13.410;2023-07-24T03:29:59;2.60;;;2.38;;
81219;SDS011;70690;52.494;13.410;2023-07-24T03:32:25;3.15;;;2.65;;
81219;SDS011;70690;52.494;13.410;2023-07-24T03:34:50;6.10;;;2.90;;
81219;SDS011;70690;52.494;13.410;2023-07-24T03:37:16;5.60;;;2.72;;
81219;SDS011;70690;52.494;13.410;2023-07-24T03:39:42;5.60;;;2.42;;
81219;SDS011;70690;52.494;13.410;2023-07-24T03:42:11;3.45;;;2.50;;
81219;SDS011;70690;52.494;13.410;2023-07-24T03:44:40;5.25;;;2.72;;
81219;SDS011;70690;52.494;13.410;2023-07-24T03:47:06;2.80;;;2.30;;
81219;SDS011;70690;52.494;13.410;2023-07-24T03:49:32;2.60;;;2.40;;
81219;SDS011;70690;52.494;13.410;2023-07-24T03:51:58;2.80;;;2.40;;
81219;SDS011;70690;52.494;13.410;2023-07-24T03:54:24;3.67;;;2.42;;
81219;SDS011;70690;52.494;13.410;2023-07-24T03:56:50;2.80;;;2.50;;
81219;SDS011;70690;52.494;13.410;2023-07-24T03:59:16;3.97;;;2.40;;
81219;SDS011;70690;52.494;13.410;2023-07-24T04:05:14;4.93;;;2.55;;
81219;SDS011;70690;52.494;13.410;2023-07-24T04:07:39;4.80;;;2.50;;
81219;SDS011;70690;52.494;13.410;2023-07-24T04:10:05;6.20;;;2.38;;
81219;SDS011;70690;52.494;13.410;2023-07-24T04:12:31;2.38;;;2.17;;
81219;SDS011;70690;52.494;13.410;2023-07-24T04:14:57;7.40;;;2.20;;
81219;SDS011;70690;52.494;13.410;2023-07-24T04:17:23;5.07;;;2.40;;
81219;SDS011;70690;52.494;13.410;2023-07-24T04:19:49;3.10;;;2.15;;
81219;SDS011;70690;52.494;13.410;2023-07-24T04:22:14;2.28;;;2.08;;
81219;SDS011;70690;52.494;13.410;2023-07-24T04:24:40;3.00;;;1.95;;
81219;SDS011;70690;52.494;13.410;2023-07-24T04:27:06;4.80;;;2.45;;
81219;SDS011;70690;52.494;13.410;2023-07-24T04:29:33;3.30;;;2.63;;
81219;SDS011;70690;52.494;13.410;2023-07-24T04:32:02;2.33;;;2.10;;
81219;SDS011;70690;52.494;13.410;2023-07-24T04:34:28;2.53;;;2.30;;
81219;SDS011;70690;52.494;13.410;2023-07-24T04:36:54;2.50;;;2.30;;
81219;SDS011;70690;52.494;13.410;2023-07-24T04:39:19;2.60;;;2.20;;
81219;SDS011;70690;52.494;13.410;2023-07-24T04:41:45;2.67;;;2.40;;
81219;SDS011;70690;52.494;13.410;2023-07-24T04:44:11;2.13;;;1.98;;
81219;SDS011;70690;52.494;13.410;2023-07-24T04:46:36;6.03;;;2.15;;
81219;SDS011;70690;52.494;13.410;2023-07-24T04:49:02;5.15;;;2.10;;
81219;SDS011;70690;52.494;13.410;2023-07-24T04:51:28;3.42;;;2.00;;
81219;SDS011;70690;52.494;13.410;2023-07-24T04:53:53;3.15;;;2.10;;
81219;SDS011;70690;52.494;13.410;2023-07-24T04:56:19;2.35;;;2.08;;
81219;SDS011;70690;52.494;13.410;2023-07-24T04:58:45;1.90;;;1.80;;
81219;SDS011;70690;52.494;13.410;2023-07-24T05:01:11;3.63;;;1.88;;
81219;SDS011;70690;52.494;13.410;2023-07-24T05:03:36;3.58;;;1.83;;
81219;SDS011;70690;52.494;13.410;2023-07-24T05:06:02;2.53;;;1.88;;
81219;SDS011;70690;52.494;13.410;2023-07-24T05:08:28;4.65;;;2.15;;
81219;SDS011;70690;52.494;13.410;2023-07-24T05:10:56;3.53;;;2.10;;
81219;SDS011;70690;52.494;13.410;2023-07-24T05:13:23;2.30;;;2.10;;
81219;SDS011;70690;52.494;13.410;2023-07-24T05:15:49;7.47;;;2.10;;
81219;SDS011;70690;52.494;13.410;2023-07-24T05:18:15;2.60;;;2.00;;
81219;SDS011;70690;52.494;13.410;2023-07-24T05:20:45;2.38;;;1.88;;
81219;SDS011;70690;52.494;13.410;2023-07-24T05:23:16;2.08;;;1.73;;
81219;SDS011;70690;52.494;13.410;2023-07-24T05:25:42;1.75;;;1.65;;
81219;SDS011;70690;52.494;13.410;2023-07-24T05:28:08;2.55;;;2.00;;
81219;SDS011;70690;52.494;13.410;2023-07-24T05:30:34;1.80;;;1.70;;
81219;SDS011;70690;52.494;13.410;2023-07-24T05:33:00;5.28;;;1.80;;
81219;SDS011;70690;52.494;13.410;2023-07-24T05:35:26;1.73;;;1.60;;
81219;SDS011;70690;52.494;13.410;2023-07-24T05:37:52;2.92;;;1.77;;
81219;SDS011;70690;52.494;13.410;2023-07-24T05:40:17;3.47;;;1.92;;
81219;SDS011;70690;52.494;13.410;2023-07-24T05:42:43;1.63;;;1.52;;
81219;SDS011;70690;52.494;13.410;2023-07-24T05:45:09;1.75;;;1.65;;
81219;SDS011;70690;52.494;13.410;2023-07-24T05:47:41;5.53;;;1.75;;
81219;SDS011;70690;52.494;13.410;2023-07-24T05:50:07;1.65;;;1.55;;
81219;SDS011;70690;52.494;13.410;2023-07-24T05:52:33;1.90;;;1.70;;
81219;SDS011;70690;52.494;13.410;2023-07-24T05:54:59;2.47;;;1.65;;
81219;SDS011;70690;52.494;13.410;2023-07-24T05:57:24;3.65;;;2.03;;
81219;SDS011;70690;52.494;13.410;2023-07-24T05:59:50;1.55;;;1.45;;
81219;SDS011;70690;52.494;13.410;2023-07-24T06:02:17;1.90;;;1.70;;
81219;SDS011;70690;52.494;13.410;2023-07-24T06:04:42;1.90;;;1.70;;
81219;SDS011;70690;52.494;13.410;2023-07-24T06:07:08;2.28;;;2.13;;
81219;SDS011;70690;52.494;13.410;2023-07-24T06:09:34;3.42;;;2.20;;
81219;SDS011;70690;52.494;13.410;2023-07-24T06:12:00;2.75;;;1.83;;
81219;SDS011;70690;52.494;13.410;2023-07-24T06:14:25;1.85;;;1.73;;
81219;SDS011;70690;52.494;13.410;2023-07-24T06:16:51;1.95;;;1.80;;
81219;SDS011;70690;52.494;13.410;2023-07-24T06:19:17;3.95;;;2.40;;
81219;SDS011;70690;52.494;13.410;2023-07-24T06:21:42;5.15;;;2.10;;
81219;SDS011;70690;52.494;13.410;2023-07-24T06:24:08;2.55;;;2.08;;
81219;SDS011;70690;52.494;13.410;2023-07-24T06:26:37;3.13;;;2.20;;
81219;SDS011;70690;52.494;13.410;2023-07-24T06:29:03;2.83;;;2.42;;
81219;SDS011;70690;52.494;13.410;2023-07-24T06:31:28;4.70;;;2.40;;
81219;SDS011;70690;52.494;13.410;2023-07-24T06:33:54;2.58;;;2.38;;
81219;SDS011;70690;52.494;13.410;2023-07-24T06:36:20;4.13;;;2.47;;
81219;SDS011;70690;52.494;13.410;2023-07-24T06:38:45;2.53;;;2.33;;
81219;SDS011;70690;52.494;13.410;2023-07-24T06:41:12;2.58;;;2.38;;
81219;SDS011;70690;52.494;13.410;2023-07-24T06:43:41;2.90;;;2.60;;
81219;SDS011;70690;52.494;13.410;2023-07-24T06:46:09;4.43;;;2.70;;
81219;SDS011;70690;52.494;13.410;2023-07-24T06:48:35;3.38;;;2.60;;
81219;SDS011;70690;52.494;13.410;2023-07-24T06:51:01;4.28;;;2.60;;
81219;SDS011;70690;52.494;13.410;2023-07-24T06:53:27;2.83;;;2.58;;
81219;SDS011;70690;52.494;13.410;2023-07-24T06:55:52;2.20;;;2.00;;
81219;SDS011;70690;52.494;13.410;2023-07-24T06:58:18;2.50;;;2.30;;
81219;SDS011;70690;52.494;13.410;2023-07-24T07:00:43;2.67;;;2.22;;
81219;SDS011;70690;52.494;13.410;2023-07-24T07:03:09;2.70;;;2.40;;
81219;SDS011;70690;52.494;13.410;2023-07-24T07:05:35;2.55;;;2.35;;
81219;SDS011;70690;52.494;13.410;2023-07-24T07:08:01;2.45;;;2.08;;
81219;SDS011;70690;52.494;13.410;2023-07-24T07:10:26;3.53;;;2.50;;
81219;SDS011;70690;52.494;13.410;2023-07-24T07:12:52;3.40;;;2.22;;
81219;SDS011;70690;52.494;13.410;2023-07-24T07:15:18;3.85;;;2.47;;
81219;SDS011;70690;52.494;13.410;2023-07-24T07:17:43;3.10;;;2.35;;
81219;SDS011;70690;52.494;13.410;2023-07-24T07:20:09;3.42;;;2.03;;
81219;SDS011;70690;52.494;13.410;2023-07-24T07:22:35;2.97;;;2.72;;
81219;SDS011;70690;52.494;13.410;2023-07-24T07:25:00;2.63;;;2.40;;
81219;SDS011;70690;52.494;13.410;2023-07-24T07:27:26;2.65;;;2.45;;
81219;SDS011;70690;52.494;13.410;2023-07-24T07:29:52;2.78;;;2.58;;
81219;SDS011;70690;52.494;13.410;2023-07-24T07:32:17;3.38;;;2.60;;
81219;SDS011;70690;52.494;13.410;2023-07-24T07:34:43;2.60;;;2.40;;
81219;SDS011;70690;52.494;13.410;2023-07-24T07:37:09;2.83;;;2.50;;
81219;SDS011;70690;52.494;13.410;2023-07-24T07:39:35;2.72;;;2.40;;
81219;SDS011;70690;52.494;13.410;2023-07-24T07:42:01;3.13;;;2.60;;
81219;SDS011;70690;52.494;13.410;2023-07-24T07:44:27;2.72;;;2.50;;
81219;SDS011;70690;52.494;13.410;2023-07-24T07:46:52;2.42;;;2.22;;
81219;SDS011;70690;52.494;13.410;2023-07-24T07:49:18;2.50;;;2.30;;
81219;SDS011;70690;52.494;13.410;2023-07-24T07:51:44;2.95;;;2.40;;
81219;SDS011;70690;52.494;13.410;2023-07-24T07:54:09;2.53;;;2.35;;
81219;SDS011;70690;52.494;13.410;2023-07-24T07:56:35;3.67;;;2.83;;
81219;SDS011;70690;52.494;13.410;2023-07-24T07:59:01;2.92;;;2.50;;
81219;SDS011;70690;52.494;13.410;2023-07-24T08:01:26;3.45;;;2.80;;
81219;SDS011;70690;52.494;13.410;2023-07-24T08:03:52;2.80;;;2.60;;
81219;SDS011;70690;52.494;13.410;2023-07-24T08:06:18;2.50;;;2.30;;
81219;SDS011;70690;52.494;13.410;2023-07-24T08:08:44;3.70;;;2.50;;
81219;SDS011;70690;52.494;13.410;2023-07-24T08:11:10;2.45;;;2.25;;
81219;SDS011;70690;52.494;13.410;2023-07-24T08:13:35;4.07;;;2.50;;
81219;SDS011;70690;52.494;13.410;2023-07-24T08:16:01;2.60;;;2.40;;
81219;SDS011;70690;52.494;13.410;2023-07-24T08:18:29;3.90;;;2.40;;
81219;SDS011;70690;52.494;13.410;2023-07-24T08:20:55;2.78;;;2.03;;
81219;SDS011;70690;52.494;13.410;2023-07-24T08:23:20;3.83;;;2.40;;
81219;SDS011;70690;52.494;13.410;2023-07-24T08:25:53;2.55;;;2.35;;
81219;SDS011;70690;52.494;13.410;2023-07-24T08:28:20;2.50;;;2.30;;
81219;SDS011;70690;52.494;13.410;2023-07-24T08:30:46;1.85;;;1.75;;
81219;SDS011;70690;52.494;13.410;2023-07-24T08:33:20;4.50;;;2.45;;
81219;SDS011;70690;52.494;13.410;2023-07-24T08:35:46;2.40;;;2.20;;
81219;SDS011;70690;52.494;13.410;2023-07-24T08:38:12;2.53;;;2.08;;
81219;SDS011;70690;52.494;13.410;2023-07-24T08:40:37;3.22;;;2.00;;
81219;SDS011;70690;52.494;13.410;2023-07-24T08:43:04;2.28;;;2.10;;
81219;SDS011;70690;52.494;13.410;2023-07-24T08:45:30;3.00;;;2.30;;
81219;SDS011;70690;52.494;13.410;2023-07-24T08:47:57;2.45;;;2.05;;
81219;SDS011;70690;52.494;13.410;2023-07-24T08:50:24;3.20;;;2.10;;
81219;SDS011;70690;52.494;13.410;2023-07-24T08:52:51;3.03;;;2.33;;
81219;SDS011;70690;52.494;13.410;2023-07-24T08:55:17;3.28;;;2.05;;
81219;SDS011;70690;52.494;13.410;2023-07-24T08:57:44;2.53;;;2.20;;
81219;SDS011;70690;52.494;13.410;2023-07-24T09:00:10;2.35;;;2.15;;
81219;SDS011;70690;52.494;13.410;2023-07-24T09:02:36;2.13;;;1.98;;
81219;SDS011;70690;52.494;13.410;2023-07-24T09:05:02;2.40;;;2.20;;
81219;SDS011;70690;52.494;13.410;2023-07-24T09:07:30;2.42;;;2.22;;
81219;SDS011;70690;52.494;13.410;2023-07-24T09:09:56;3.60;;;2.35;;
81219;SDS011;70690;52.494;13.410;2023-07-24T09:12:22;2.53;;;2.28;;
81219;SDS011;70690;52.494;13.410;2023-07-24T09:14:48;4.68;;;2.58;;
81219;SDS011;70690;52.494;13.410;2023-07-24T09:17:25;3.90;;;2.45;;
81219;SDS011;70690;52.494;13.410;2023-07-24T09:19:55;3.75;;;2.20;;
81219;SDS011;70690;52.494;13.410;2023-07-24T09:22:21;2.90;;;2.33;;
81219;SDS011;70690;52.494;13.410;2023-07-24T09:24:53;2.97;;;2.03;;
81219;SDS011;70690;52.494;13.410;2023-07-24T09:27:24;5.95;;;2.25;;
81219;SDS011;70690;52.494;13.410;2023-07-24T09:29:51;2.60;;;2.17;;
81219;SDS011;70690;52.494;13.410;2023-07-24T09:34:50;3.45;;;2.00;;
81219;SDS011;70690;52.494;13.410;2023-07-24T09:37:49;2.63;;;2.28;;
81219;SDS011;70690;52.494;13.410;2023-07-24T09:40:08;3.53;;;2.40;;
81219;SDS011;70690;52.494;13.410;2023-07-24T09:42:35;5.03;;;2.40;;
81219;SDS011;70690;52.494;13.410;2023-07-24T09:45:02;2.45;;;1.90;;
81219;SDS011;70690;52.494;13.410;2023-07-24T09:47:29;3.30;;;2.50;;
81219;SDS011;70690;52.494;13.410;2023-07-24T09:49:55;2.53;;;2.05;;
81219;SDS011;70690;52.494;13.410;2023-07-24T09:52:21;5.88;;;2.40;;
81219;SDS011;70690;52.494;13.410;2023-07-24T09:54:59;3.05;;;2.40;;
81219;SDS011;70690;52.494;13.410;2023-07-24T09:57:37;3.45;;;2.50;;
81219;SDS011;70690;52.494;13.410;2023-07-24T10:00:04;2.63;;;2.38;;
81219;SDS011;70690;52.494;13.410;2023-07-24T10:02:32;3.38;;;2.35;;
81219;SDS011;70690;52.494;13.410;2023-07-24T10:04:59;3.10;;;2.58;;
81219;SDS011;70690;52.494;13.410;2023-07-24T10:07:26;3.67;;;2.42;;
81219;SDS011;70690;52.494;13.410;2023-07-24T10:09:52;3.95;;;2.42;;
81219;SDS011;70690;52.494;13.410;2023-07-24T10:12:19;4.43;;;2.55;;
81219;SDS011;70690;52.494;13.410;2023-07-24T10:14:46;3.20;;;2.60;;
81219;SDS011;70690;52.494;13.410;2023-07-24T10:17:12;7.43;;;3.25;;
81219;SDS011;70690;52.494;13.410;2023-07-24T10:19:42;3.22;;;2.55;;
81219;SDS011;70690;52.494;13.410;2023-07-24T10:22:09;4.35;;;2.88;;
81219;SDS011;70690;52.494;13.410;2023-07-24T10:24:42;3.63;;;2.88;;
81219;SDS011;70690;52.494;13.410;2023-07-24T10:27:08;4.07;;;2.92;;
81219;SDS011;70690;52.494;13.410;2023-07-24T10:29:34;3.58;;;2.88;;
81219;SDS011;70690;52.494;13.410;2023-07-24T10:32:01;6.60;;;2.85;;
81219;SDS011;70690;52.494;13.410;2023-07-24T10:34:35;7.38;;;3.53;;
81219;SDS011;70690;52.494;13.410;2023-07-24T10:37:02;8.52;;;3.50;;
81219;SDS011;70690;52.494;13.410;2023-07-24T10:39:36;8.32;;;3.45;;
81219;SDS011;70690;52.494;13.410;2023-07-24T10:42:09;4.25;;;3.38;;
81219;SDS011;70690;52.494;13.410;2023-07-24T10:44:35;4.43;;;3.38;;
81219;SDS011;70690;52.494;13.410;2023-07-24T10:47:01;4.97;;;3.60;;
81219;SDS011;70690;52.494;13.410;2023-07-24T10:49:27;5.13;;;3.78;;
81219;SDS011;70690;52.494;13.410;2023-07-24T10:51:57;5.32;;;3.90;;
81219;SDS011;70690;52.494;13.410;2023-07-24T10:54:23;5.43;;;3.70;;
81219;SDS011;70690;52.494;13.410;2023-07-24T10:56:49;6.00;;;3.50;;
81219;SDS011;70690;52.494;13.410;2023-07-24T10:59:22;5.53;;;3.92;;
81219;SDS011;70690;52.494;13.410;2023-07-24T11:01:48;5.18;;;3.65;;
81219;SDS011;70690;52.494;13.410;2023-07-24T11:04:14;8.27;;;3.72;;
81219;SDS011;70690;52.494;13.410;2023-07-24T11:06:40;4.63;;;3.30;;
81219;SDS011;70690;52.494;13.410;2023-07-24T11:09:06;3.90;;;3.50;;
81219;SDS011;70690;52.494;13.410;2023-07-24T11:11:32;7.68;;;4.22;;
81219;SDS011;70690;52.494;13.410;2023-07-24T11:13:59;6.82;;;3.80;;
81219;SDS011;70690;52.494;13.410;2023-07-24T11:16:26;5.47;;;3.78;;
81219;SDS011;70690;52.494;13.410;2023-07-24T11:18:52;7.93;;;4.15;;
81219;SDS011;70690;52.494;13.410;2023-07-24T11:21:19;8.98;;;4.35;;
81219;SDS011;70690;52.494;13.410;2023-07-24T11:23:48;4.63;;;3.53;;
81219;SDS011;70690;52.494;13.410;2023-07-24T11:26:18;6.38;;;3.95;;
81219;SDS011;70690;52.494;13.410;2023-07-24T11:28:48;5.53;;;4.05;;
81219;SDS011;70690;52.494;13.410;2023-07-24T11:31:17;5.80;;;3.92;;
81219;SDS011;70690;52.494;13.410;2023-07-24T11:33:46;7.43;;;4.22;;
81219;SDS011;70690;52.494;13.410;2023-07-24T11:36:13;6.13;;;3.72;;
81219;SDS011;70690;52.494;13.410;2023-07-24T11:38:40;5.97;;;3.90;;
81219;SDS011;70690;52.494;13.410;2023-07-24T11:41:05;8.65;;;4.30;;
81219;SDS011;70690;52.494;13.410;2023-07-24T11:43:33;4.85;;;4.03;;
81219;SDS011;70690;52.494;13.410;2023-07-24T11:45:59;5.43;;;4.07;;
81219;SDS011;70690;52.494;13.410;2023-07-24T11:48:25;8.35;;;4.38;;
81219;SDS011;70690;52.494;13.410;2023-07-24T11:50:54;5.38;;;4.22;;
81219;SDS011;70690;52.494;13.410;2023-07-24T11:53:27;8.25;;;4.22;;
81219;SDS011;70690;52.494;13.410;2023-07-24T11:55:55;6.00;;;3.88;;
81219;SDS011;70690;52.494;13.410;2023-07-24T11:58:27;5.03;;;4.05;;
81219;SDS011;70690;52.494;13.410;2023-07-24T12:00:53;7.30;;;4.38;;
81219;SDS011;70690;52.494;13.410;2023-07-24T12:03:20;7.15;;;4.55;;
81219;SDS011;70690;52.494;13.410;2023-07-24T12:05:46;5.20;;;4.10;;
81219;SDS011;70690;52.494;13.410;2023-07-24T12:08:12;6.97;;;4.47;;
81219;SDS011;70690;52.494;13.410;2023-07-24T12:10:42;5.57;;;4.35;;
81219;SDS011;70690;52.494;13.410;2023-07-24T12:13:08;7.57;;;4.10;;
81219;SDS011;70690;52.494;13.410;2023-07-24T12:15:34;5.47;;;4.15;;
81219;SDS011;70690;52.494;13.410;2023-07-24T12:18:01;6.32;;;4.43;;
81219;SDS011;70690;52.494;13.410;2023-07-24T12:20:27;8.52;;;4.38;;
81219;SDS011;70690;52.494;13.410;2023-07-24T12:22:53;7.00;;;4.35;;
81219;SDS011;70690;52.494;13.410;2023-07-24T12:25:19;6.88;;;4.22;;
81219;SDS011;70690;52.494;13.410;2023-07-24T12:27:46;7.63;;;4.28;;
81219;SDS011;70690;52.494;13.410;2023-07-24T12:30:12;11.70;;;4.30;;
81219;SDS011;70690;52.494;13.410;2023-07-24T12:32:38;7.30;;;4.10;;
81219;SDS011;70690;52.494;13.410;2023-07-24T12:35:04;8.77;;;5.00;;
81219;SDS011;70690;52.494;13.410;2023-07-24T12:37:30;7.63;;;4.22;;
81219;SDS011;70690;52.494;13.410;2023-07-24T12:39:56;12.05;;;4.60;;
81219;SDS011;70690;52.494;13.410;2023-07-24T12:42:22;6.55;;;4.07;;
81219;SDS011;70690;52.494;13.410;2023-07-24T12:44:48;5.57;;;4.07;;
81219;SDS011;70690;52.494;13.410;2023-07-24T12:47:14;6.95;;;4.63;;
81219;SDS011;70690;52.494;13.410;2023-07-24T12:49:40;7.07;;;4.22;;
81219;SDS011;70690;52.494;13.410;2023-07-24T12:52:06;6.82;;;4.05;;
81219;SDS011;70690;52.494;13.410;2023-07-24T12:54:32;8.15;;;3.67;;
81219;SDS011;70690;52.494;13.410;2023-07-24T12:57:00;8.77;;;3.90;;
81219;SDS011;70690;52.494;13.410;2023-07-24T12:59:26;8.90;;;4.30;;
81219;SDS011;70690;52.494;13.410;2023-07-24T13:01:52;5.88;;;3.70;;
81219;SDS011;70690;52.494;13.410;2023-07-24T13:04:19;8.32;;;4.00;;
81219;SDS011;70690;52.494;13.410;2023-07-24T13:06:45;8.07;;;3.72;;
81219;SDS011;70690;52.494;13.410;2023-07-24T13:09:11;5.70;;;3.50;;
81219;SDS011;70690;52.494;13.410;2023-07-24T13:11:36;6.28;;;3.40;;
81219;SDS011;70690;52.494;13.410;2023-07-24T13:14:02;5.57;;;3.92;;
81219;SDS011;70690;52.494;13.410;2023-07-24T13:16:28;5.82;;;4.10;;
81219;SDS011;70690;52.494;13.410;2023-07-24T13:18:54;4.78;;;3.83;;
81219;SDS011;70690;52.494;13.410;2023-07-24T13:21:20;6.85;;;3.78;;
81219;SDS011;70690;52.494;13.410;2023-07-24T13:23:46;6.25;;;3.53;;
81219;SDS011;70690;52.494;13.410;2023-07-24T13:26:12;6.30;;;3.40;;
81219;SDS011;70690;52.494;13.410;2023-07-24T13:28:38;6.07;;;4.00;;
81219;SDS011;70690;52.494;13.410;2023-07-24T13:31:19;8.50;;;3.53;;
81219;SDS011;70690;52.494;13.410;2023-07-24T13:33:47;7.05;;;3.70;;
81219;SDS011;70690;52.494;13.410;2023-07-24T13:36:13;5.57;;;3.78;;
81219;SDS011;70690;52.494;13.410;2023-07-24T13:38:39;10.65;;;3.70;;
81219;SDS011;70690;52.494;13.410;2023-07-24T13:41:06;4.97;;;3.60;;
81219;SDS011;70690;52.494;13.410;2023-07-24T13:43:33;7.00;;;3.75;;
81219;SDS011;70690;52.494;13.410;2023-07-24T13:45:59;7.57;;;3.55;;
81219;SDS011;70690;52.494;13.410;2023-07-24T13:48:26;5.75;;;3.95;;
81219;SDS011;70690;52.494;13.410;2023-07-24T13:50:52;7.32;;;3.97;;
81219;SDS011;70690;52.494;13.410;2023-07-24T13:53:18;5.65;;;3.85;;
81219;SDS011;70690;52.494;13.410;2023-07-24T13:55:44;7.07;;;3.55;;
81219;SDS011;70690;52.494;13.410;2023-07-24T13:58:10;7.95;;;3.88;;
81219;SDS011;70690;52.494;13.410;2023-07-24T14:00:35;8.32;;;3.58;;
81219;SDS011;70690;52.494;13.410;2023-07-24T14:03:01;6.50;;;4.00;;
81219;SDS011;70690;52.494;13.410;2023-07-24T14:05:27;9.27;;;3.70;;
81219;SDS011;70690;52.494;13.410;2023-07-24T14:07:53;6.35;;;3.83;;
81219;SDS011;70690;52.494;13.410;2023-07-24T14:10:19;13.00;;;4.38;;
81219;SDS011;70690;52.494;13.410;2023-07-24T14:12:45;10.98;;;4.15;;
81219;SDS011;70690;52.494;13.410;2023-07-24T14:15:11;7.97;;;4.80;;
81219;SDS011;70690;52.494;13.410;2023-07-24T14:17:37;6.35;;;4.60;;
81219;SDS011;70690;52.494;13.410;2023-07-24T14:20:03;4.50;;;3.90;;
81219;SDS011;70690;52.494;13.410;2023-07-24T14:22:30;10.00;;;4.25;;
81219;SDS011;70690;52.494;13.410;2023-07-24T14:24:56;10.60;;;4.20;;
81219;SDS011;70690;52.494;13.410;2023-07-24T14:27:21;7.35;;;3.97;;
81219;SDS011;70690;52.494;13.410;2023-07-24T14:29:47;7.57;;;3.95;;
81219;SDS011;70690;52.494;13.410;2023-07-24T14:32:13;6.30;;;3.70;;
81219;SDS011;70690;52.494;13.410;2023-07-24T14:34:40;18.05;;;10.43;;
81219;SDS011;70690;52.494;13.410;2023-07-24T14:37:06;9.23;;;4.22;;
81219;SDS011;70690;52.494;13.410;2023-07-24T14:39:32;13.02;;;9.00;;
81219;SDS011;70690;52.494;13.410;2023-07-24T14:41:57;6.93;;;3.80;;
81219;SDS011;70690;52.494;13.410;2023-07-24T14:44:23;4.97;;;3.90;;